Terminal Aerodrome Forecast
Issued by NWS

Home | Current Version | Previous Version | Text Only | Print | Product List | Glossary On
Versions: 1 2 3 4 5 6 7 8 9 10 11 12 13
000
FTUS44 KBMX 290520
TAFANB
TAF
KANB 290520Z 2906/3006 07003KT P6SM SCT250
     FM290700 07005KT 6SM BR OVC050
     FM291000 08005KT 4SM BR OVC015
     FM291400 11006KT 6SM SHRA VCTS BKN015CB OVC050
     FM292100 11006KT P6SM VCTS SCT025CB OVC050=

USA.gov is the U.S. government's official web portal to all federal, state and local government web resources and services.